sensor_id;sensor_type;location;lat;lon;timestamp;temperature;humidity
16182;DHT22;8197;51.664;7.114;2023-11-22T00:03:44;11.60;72.70
16182;DHT22;8197;51.664;7.114;2023-11-22T00:08:47;11.60;69.00
16182;DHT22;8197;51.664;7.114;2023-11-22T00:13:56;11.70;69.00
16182;DHT22;8197;51.664;7.114;2023-11-22T00:19:00;11.20;71.30
16182;DHT22;8197;51.664;7.114;2023-11-22T00:24:04;10.80;71.40
16182;DHT22;8197;51.664;7.114;2023-11-22T00:29:08;10.40;71.90
16182;DHT22;8197;51.664;7.114;2023-11-22T00:34:11;10.30;72.60
16182;DHT22;8197;51.664;7.114;2023-11-22T00:39:14;10.60;71.80
16182;DHT22;8197;51.664;7.114;2023-11-22T00:44:18;10.50;76.20
16182;DHT22;8197;51.664;7.114;2023-11-22T00:49:21;10.90;70.60
16182;DHT22;8197;51.664;7.114;2023-11-22T00:54:24;11.20;72.70
16182;DHT22;8197;51.664;7.114;2023-11-22T00:59:29;11.00;69.10
16182;DHT22;8197;51.664;7.114;2023-11-22T01:04:32;10.70;70.70
16182;DHT22;8197;51.664;7.114;2023-11-22T01:09:37;10.40;71.90
16182;DHT22;8197;51.664;7.114;2023-11-22T01:14:41;10.60;72.50
16182;DHT22;8197;51.664;7.114;2023-11-22T01:19:44;10.60;71.20
16182;DHT22;8197;51.664;7.114;2023-11-22T01:24:47;10.40;72.10
16182;DHT22;8197;51.664;7.114;2023-11-22T01:29:51;10.40;73.10
16182;DHT22;8197;51.664;7.114;2023-11-22T01:34:55;10.90;72.30
16182;DHT22;8197;51.664;7.114;2023-11-22T01:39:59;10.90;70.10
16182;DHT22;8197;51.664;7.114;2023-11-22T01:45:06;11.10;72.00
16182;DHT22;8197;51.664;7.114;2023-11-22T01:50:10;11.30;69.50
16182;DHT22;8197;51.664;7.114;2023-11-22T01:55:13;11.00;69.60
16182;DHT22;8197;51.664;7.114;2023-11-22T02:00:19;10.80;70.90
16182;DHT22;8197;51.664;7.114;2023-11-22T02:05:24;11.00;70.80
16182;DHT22;8197;51.664;7.114;2023-11-22T02:10:27;10.70;69.20
16182;DHT22;8197;51.664;7.114;2023-11-22T02:15:32;10.40;73.40
16182;DHT22;8197;51.664;7.114;2023-11-22T02:20:35;10.50;73.20
16182;DHT22;8197;51.664;7.114;2023-11-22T02:25:39;10.50;69.00
16182;DHT22;8197;51.664;7.114;2023-11-22T02:30:42;10.00;71.60
16182;DHT22;8197;51.664;7.114;2023-11-22T02:35:45;9.90;74.90
16182;DHT22;8197;51.664;7.114;2023-11-22T02:40:49;10.10;73.70
16182;DHT22;8197;51.664;7.114;2023-11-22T02:45:52;10.20;70.40
16182;DHT22;8197;51.664;7.114;2023-11-22T02:50:55;10.10;70.10
16182;DHT22;8197;51.664;7.114;2023-11-22T02:56:00;9.80;73.60
16182;DHT22;8197;51.664;7.114;2023-11-22T03:01:03;9.70;71.80
16182;DHT22;8197;51.664;7.114;2023-11-22T03:06:06;9.70;72.60
16182;DHT22;8197;51.664;7.114;2023-11-22T03:11:11;10.30;68.90
16182;DHT22;8197;51.664;7.114;2023-11-22T03:16:14;10.00;69.50
16182;DHT22;8197;51.664;7.114;2023-11-22T03:21:17;9.70;73.40
16182;DHT22;8197;51.664;7.114;2023-11-22T03:26:21;9.80;69.80
16182;DHT22;8197;51.664;7.114;2023-11-22T03:31:24;9.40;72.80
16182;DHT22;8197;51.664;7.114;2023-11-22T03:36:27;9.20;71.60
16182;DHT22;8197;51.664;7.114;2023-11-22T03:41:31;9.20;72.30
16182;DHT22;8197;51.664;7.114;2023-11-22T03:46:34;9.40;72.90
16182;DHT22;8197;51.664;7.114;2023-11-22T03:51:38;9.20;71.10
16182;DHT22;8197;51.664;7.114;2023-11-22T03:56:42;9.40;75.10
16182;DHT22;8197;51.664;7.114;2023-11-22T04:01:45;9.60;70.70
16182;DHT22;8197;51.664;7.114;2023-11-22T04:06:48;9.10;70.30
16182;DHT22;8197;51.664;7.114;2023-11-22T04:11:53;8.70;72.70
16182;DHT22;8197;51.664;7.114;2023-11-22T04:16:56;8.50;74.50
16182;DHT22;8197;51.664;7.114;2023-11-22T04:21:59;8.50;74.60
16182;DHT22;8197;51.664;7.114;2023-11-22T04:27:04;8.40;73.10
16182;DHT22;8197;51.664;7.114;2023-11-22T04:32:07;8.20;72.90
16182;DHT22;8197;51.664;7.114;2023-11-22T04:37:10;8.10;74.00
16182;DHT22;8197;51.664;7.114;2023-11-22T04:42:15;8.20;74.40
16182;DHT22;8197;51.664;7.114;2023-11-22T04:47:21;8.10;73.40
16182;DHT22;8197;51.664;7.114;2023-11-22T04:52:24;8.00;73.90
16182;DHT22;8197;51.664;7.114;2023-11-22T04:57:31;7.90;74.10
16182;DHT22;8197;51.664;7.114;2023-11-22T05:02:34;7.80;74.40
16182;DHT22;8197;51.664;7.114;2023-11-22T05:07:38;8.80;76.00
16182;DHT22;8197;51.664;7.114;2023-11-22T05:12:42;9.70;70.30
16182;DHT22;8197;51.664;7.114;2023-11-22T05:17:45;9.10;68.20
16182;DHT22;8197;51.664;7.114;2023-11-22T05:22:48;9.40;70.30
16182;DHT22;8197;51.664;7.114;2023-11-22T05:27:53;9.00;67.10
16182;DHT22;8197;51.664;7.114;2023-11-22T05:32:56;8.40;69.70
16182;DHT22;8197;51.664;7.114;2023-11-22T05:37:59;8.50;73.40
16182;DHT22;8197;51.664;7.114;2023-11-22T05:43:04;8.40;70.20
16182;DHT22;8197;51.664;7.114;2023-11-22T05:48:09;9.00;70.60
16182;DHT22;8197;51.664;7.114;2023-11-22T05:53:13;8.50;68.10
16182;DHT22;8197;51.664;7.114;2023-11-22T05:58:22;8.10;69.70
16182;DHT22;8197;51.664;7.114;2023-11-22T06:03:25;8.00;72.80
16182;DHT22;8197;51.664;7.114;2023-11-22T06:08:28;8.00;70.10
16182;DHT22;8197;51.664;7.114;2023-11-22T06:13:33;8.00;69.70
16182;DHT22;8197;51.664;7.114;2023-11-22T06:18:36;7.70;71.30
16182;DHT22;8197;51.664;7.114;2023-11-22T06:23:41;7.50;70.40
16182;DHT22;8197;51.664;7.114;2023-11-22T06:28:46;7.30;71.70
16182;DHT22;8197;51.664;7.114;2023-11-22T06:33:50;8.20;72.70
16182;DHT22;8197;51.664;7.114;2023-11-22T06:38:53;8.50;66.90
16182;DHT22;8197;51.664;7.114;2023-11-22T06:43:58;7.90;68.70
16182;DHT22;8197;51.664;7.114;2023-11-22T06:49:01;8.00;66.80
16182;DHT22;8197;51.664;7.114;2023-11-22T06:54:04;7.50;67.90
16182;DHT22;8197;51.664;7.114;2023-11-22T06:59:09;7.10;70.00
16182;DHT22;8197;51.664;7.114;2023-11-22T07:04:12;6.90;70.80
16182;DHT22;8197;51.664;7.114;2023-11-22T07:09:15;7.20;70.20
16182;DHT22;8197;51.664;7.114;2023-11-22T07:14:19;7.50;68.80
16182;DHT22;8197;51.664;7.114;2023-11-22T07:19:23;7.80;67.40
16182;DHT22;8197;51.664;7.114;2023-11-22T07:24:26;7.90;70.50
16182;DHT22;8197;51.664;7.114;2023-11-22T07:29:30;8.10;66.60
16182;DHT22;8197;51.664;7.114;2023-11-22T07:34:34;7.50;67.50
16182;DHT22;8197;51.664;7.114;2023-11-22T07:39:37;7.30;68.40
16182;DHT22;8197;51.664;7.114;2023-11-22T07:44:42;7.00;70.50
16182;DHT22;8197;51.664;7.114;2023-11-22T07:49:45;6.80;71.10
16182;DHT22;8197;51.664;7.114;2023-11-22T07:54:50;6.70;72.50
16182;DHT22;8197;51.664;7.114;2023-11-22T07:59:54;6.70;73.30
16182;DHT22;8197;51.664;7.114;2023-11-22T08:04:57;6.80;73.10
16182;DHT22;8197;51.664;7.114;2023-11-22T08:10:04;6.80;73.90
16182;DHT22;8197;51.664;7.114;2023-11-22T08:15:13;6.70;74.40
16182;DHT22;8197;51.664;7.114;2023-11-22T08:20:17;6.90;74.60
16182;DHT22;8197;51.664;7.114;2023-11-22T08:25:20;6.90;74.90
16182;DHT22;8197;51.664;7.114;2023-11-22T08:30:25;7.00;74.60
16182;DHT22;8197;51.664;7.114;2023-11-22T08:35:28;7.00;75.50
16182;DHT22;8197;51.664;7.114;2023-11-22T08:40:31;7.00;75.10
16182;DHT22;8197;51.664;7.114;2023-11-22T08:45:36;7.10;75.30
16182;DHT22;8197;51.664;7.114;2023-11-22T08:50:39;7.10;75.30
16182;DHT22;8197;51.664;7.114;2023-11-22T08:55:41;7.20;73.70
16182;DHT22;8197;51.664;7.114;2023-11-22T09:00:46;7.30;74.20
16182;DHT22;8197;51.664;7.114;2023-11-22T09:05:49;7.40;73.60
16182;DHT22;8197;51.664;7.114;2023-11-22T09:10:54;7.50;73.20
16182;DHT22;8197;51.664;7.114;2023-11-22T09:15:58;7.70;73.60
16182;DHT22;8197;51.664;7.114;2023-11-22T09:21:01;7.70;71.40
16182;DHT22;8197;51.664;7.114;2023-11-22T09:26:04;7.80;71.90
16182;DHT22;8197;51.664;7.114;2023-11-22T09:31:09;7.80;72.00
16182;DHT22;8197;51.664;7.114;2023-11-22T09:36:15;8.00;70.40
16182;DHT22;8197;51.664;7.114;2023-11-22T09:41:19;8.10;69.20
16182;DHT22;8197;51.664;7.114;2023-11-22T09:46:24;8.00;71.40
16182;DHT22;8197;51.664;7.114;2023-11-22T09:51:29;8.30;69.00
16182;DHT22;8197;51.664;7.114;2023-11-22T09:56:33;8.20;69.40
16182;DHT22;8197;51.664;7.114;2023-11-22T10:01:39;8.20;67.20
16182;DHT22;8197;51.664;7.114;2023-11-22T10:06:42;8.20;69.40
16182;DHT22;8197;51.664;7.114;2023-11-22T10:11:48;8.10;69.70
16182;DHT22;8197;51.664;7.114;2023-11-22T10:17:00;8.20;68.60
16182;DHT22;8197;51.664;7.114;2023-11-22T10:22:04;8.30;68.00
16182;DHT22;8197;51.664;7.114;2023-11-22T10:27:08;8.30;65.80
16182;DHT22;8197;51.664;7.114;2023-11-22T10:32:16;8.40;66.40
16182;DHT22;8197;51.664;7.114;2023-11-22T10:37:19;8.60;65.70
16182;DHT22;8197;51.664;7.114;2023-11-22T10:42:22;8.50;63.20
16182;DHT22;8197;51.664;7.114;2023-11-22T10:47:27;8.60;67.10
16182;DHT22;8197;51.664;7.114;2023-11-22T10:52:32;8.70;66.10
16182;DHT22;8197;51.664;7.114;2023-11-22T10:57:43;9.00;63.70
16182;DHT22;8197;51.664;7.114;2023-11-22T11:02:53;9.10;63.40
16182;DHT22;8197;51.664;7.114;2023-11-22T11:08:02;9.10;64.50
16182;DHT22;8197;51.664;7.114;2023-11-22T11:13:11;9.00;62.10
16182;DHT22;8197;51.664;7.114;2023-11-22T11:18:16;9.10;62.30
16182;DHT22;8197;51.664;7.114;2023-11-22T11:23:21;9.10;61.20
16182;DHT22;8197;51.664;7.114;2023-11-22T11:28:26;9.20;63.00
16182;DHT22;8197;51.664;7.114;2023-11-22T11:33:33;9.10;58.20
16182;DHT22;8197;51.664;7.114;2023-11-22T11:38:36;9.10;60.90
16182;DHT22;8197;51.664;7.114;2023-11-22T11:43:40;9.10;56.80
16182;DHT22;8197;51.664;7.114;2023-11-22T11:48:45;9.40;60.20
16182;DHT22;8197;51.664;7.114;2023-11-22T11:53:50;9.30;58.10
16182;DHT22;8197;51.664;7.114;2023-11-22T11:58:55;9.40;56.50
16182;DHT22;8197;51.664;7.114;2023-11-22T12:04:02;9.40;57.10
16182;DHT22;8197;51.664;7.114;2023-11-22T12:09:05;9.20;58.00
16182;DHT22;8197;51.664;7.114;2023-11-22T12:14:10;9.20;60.90
16182;DHT22;8197;51.664;7.114;2023-11-22T12:19:22;9.50;61.10
16182;DHT22;8197;51.664;7.114;2023-11-22T12:24:25;9.70;61.30
16182;DHT22;8197;51.664;7.114;2023-11-22T12:29:28;9.70;60.00
16182;DHT22;8197;51.664;7.114;2023-11-22T12:34:33;10.00;59.10
16182;DHT22;8197;51.664;7.114;2023-11-22T12:39:36;10.10;55.90
16182;DHT22;8197;51.664;7.114;2023-11-22T12:44:48;10.00;57.50
16182;DHT22;8197;51.664;7.114;2023-11-22T12:49:54;10.10;55.60
16182;DHT22;8197;51.664;7.114;2023-11-22T12:54:57;10.20;57.20
16182;DHT22;8197;51.664;7.114;2023-11-22T13:00:00;10.40;55.70
16182;DHT22;8197;51.664;7.114;2023-11-22T13:05:05;10.30;55.20
16182;DHT22;8197;51.664;7.114;2023-11-22T13:10:15;10.40;52.30
16182;DHT22;8197;51.664;7.114;2023-11-22T13:15:20;10.30;57.90
16182;DHT22;8197;51.664;7.114;2023-11-22T13:20:26;10.80;56.90
16182;DHT22;8197;51.664;7.114;2023-11-22T13:25:30;11.10;55.80
16182;DHT22;8197;51.664;7.114;2023-11-22T13:30:32;11.00;53.10
16182;DHT22;8197;51.664;7.114;2023-11-22T13:35:37;11.00;54.70
16182;DHT22;8197;51.664;7.114;2023-11-22T13:40:40;11.30;53.10
16182;DHT22;8197;51.664;7.114;2023-11-22T13:45:47;10.90;54.60
16182;DHT22;8197;51.664;7.114;2023-11-22T13:50:53;10.80;54.40
16182;DHT22;8197;51.664;7.114;2023-11-22T13:55:56;10.60;54.40
16182;DHT22;8197;51.664;7.114;2023-11-22T14:01:00;10.70;54.60
16182;DHT22;8197;51.664;7.114;2023-11-22T14:06:04;10.60;54.80
16182;DHT22;8197;51.664;7.114;2023-11-22T14:11:07;10.70;54.90
16182;DHT22;8197;51.664;7.114;2023-11-22T14:16:12;10.50;55.50
16182;DHT22;8197;51.664;7.114;2023-11-22T14:21:17;10.50;56.00
16182;DHT22;8197;51.664;7.114;2023-11-22T14:26:19;10.40;56.70
16182;DHT22;8197;51.664;7.114;2023-11-22T14:31:24;10.40;56.80
16182;DHT22;8197;51.664;7.114;2023-11-22T14:36:29;10.20;57.30
16182;DHT22;8197;51.664;7.114;2023-11-22T14:41:31;10.20;60.20
16182;DHT22;8197;51.664;7.114;2023-11-22T14:46:34;10.10;60.20
16182;DHT22;8197;51.664;7.114;2023-11-22T14:51:39;10.20;57.20
16182;DHT22;8197;51.664;7.114;2023-11-22T14:56:42;10.20;56.40
16182;DHT22;8197;51.664;7.114;2023-11-22T15:01:46;10.20;55.20
16182;DHT22;8197;51.664;7.114;2023-11-22T15:06:51;9.90;54.60
16182;DHT22;8197;51.664;7.114;2023-11-22T15:11:54;9.80;56.30
16182;DHT22;8197;51.664;7.114;2023-11-22T15:16:58;9.70;56.80
16182;DHT22;8197;51.664;7.114;2023-11-22T15:22:03;9.70;56.10
16182;DHT22;8197;51.664;7.114;2023-11-22T15:27:07;9.70;57.60
16182;DHT22;8197;51.664;7.114;2023-11-22T15:32:10;9.70;58.40
16182;DHT22;8197;51.664;7.114;2023-11-22T15:37:14;9.70;57.60
16182;DHT22;8197;51.664;7.114;2023-11-22T15:42:18;9.60;59.50
16182;DHT22;8197;51.664;7.114;2023-11-22T15:47:21;9.70;60.50
16182;DHT22;8197;51.664;7.114;2023-11-22T15:52:26;9.80;59.20
16182;DHT22;8197;51.664;7.114;2023-11-22T15:57:29;9.80;58.10
16182;DHT22;8197;51.664;7.114;2023-11-22T16:02:32;9.90;59.20
16182;DHT22;8197;51.664;7.114;2023-11-22T16:07:37;9.90;57.10
16182;DHT22;8197;51.664;7.114;2023-11-22T16:12:40;10.00;58.50
16182;DHT22;8197;51.664;7.114;2023-11-22T16:17:43;10.00;56.10
16182;DHT22;8197;51.664;7.114;2023-11-22T16:22:47;10.10;58.70
16182;DHT22;8197;51.664;7.114;2023-11-22T16:27:51;10.40;57.60
16182;DHT22;8197;51.664;7.114;2023-11-22T16:32:54;10.70;57.40
16182;DHT22;8197;51.664;7.114;2023-11-22T16:38:00;10.80;54.50
16182;DHT22;8197;51.664;7.114;2023-11-22T16:43:04;10.60;56.10
16182;DHT22;8197;51.664;7.114;2023-11-22T16:48:07;10.60;57.00
16182;DHT22;8197;51.664;7.114;2023-11-22T16:53:11;10.90;54.40
16182;DHT22;8197;51.664;7.114;2023-11-22T16:58:16;11.00;53.80
16182;DHT22;8197;51.664;7.114;2023-11-22T17:03:19;11.00;52.90
16182;DHT22;8197;51.664;7.114;2023-11-22T17:08:27;10.90;53.60
16182;DHT22;8197;51.664;7.114;2023-11-22T17:13:30;10.70;55.20
16182;DHT22;8197;51.664;7.114;2023-11-22T17:18:33;10.40;56.70
16182;DHT22;8197;51.664;7.114;2023-11-22T17:23:37;10.40;56.60
16182;DHT22;8197;51.664;7.114;2023-11-22T17:28:40;10.30;56.90
16182;DHT22;8197;51.664;7.114;2023-11-22T17:33:43;10.30;57.80
16182;DHT22;8197;51.664;7.114;2023-11-22T17:38:48;10.30;56.70
16182;DHT22;8197;51.664;7.114;2023-11-22T17:43:50;10.00;57.50
16182;DHT22;8197;51.664;7.114;2023-11-22T17:48:53;10.00;57.60
16182;DHT22;8197;51.664;7.114;2023-11-22T17:53:59;9.90;57.60
16182;DHT22;8197;51.664;7.114;2023-11-22T17:59:02;10.00;59.60
16182;DHT22;8197;51.664;7.114;2023-11-22T18:04:05;10.20;58.20
16182;DHT22;8197;51.664;7.114;2023-11-22T18:09:09;10.70;58.00
16182;DHT22;8197;51.664;7.114;2023-11-22T18:14:12;10.50;57.10
16182;DHT22;8197;51.664;7.114;2023-11-22T18:19:16;10.50;56.70
16182;DHT22;8197;51.664;7.114;2023-11-22T18:24:20;10.30;58.10
16182;DHT22;8197;51.664;7.114;2023-11-22T18:29:24;10.10;58.30
16182;DHT22;8197;51.664;7.114;2023-11-22T18:34:29;10.30;58.80
16182;DHT22;8197;51.664;7.114;2023-11-22T18:39:35;10.00;59.80
16182;DHT22;8197;51.664;7.114;2023-11-22T18:44:39;10.20;60.80
16182;DHT22;8197;51.664;7.114;2023-11-22T18:49:43;10.20;60.70
16182;DHT22;8197;51.664;7.114;2023-11-22T18:54:47;9.90;61.60
16182;DHT22;8197;51.664;7.114;2023-11-22T18:59:50;9.80;62.50
16182;DHT22;8197;51.664;7.114;2023-11-22T19:04:53;9.80;63.40
16182;DHT22;8197;51.664;7.114;2023-11-22T19:09:57;9.90;63.50
16182;DHT22;8197;51.664;7.114;2023-11-22T19:15:00;10.50;61.50
16182;DHT22;8197;51.664;7.114;2023-11-22T19:20:05;10.40;62.10
16182;DHT22;8197;51.664;7.114;2023-11-22T19:25:10;10.50;61.60
16182;DHT22;8197;51.664;7.114;2023-11-22T19:30:14;10.30;62.20
16182;DHT22;8197;51.664;7.114;2023-11-22T19:35:17;10.30;62.90
16182;DHT22;8197;51.664;7.114;2023-11-22T19:40:21;10.20;63.80
16182;DHT22;8197;51.664;7.114;2023-11-22T19:45:26;10.30;63.20
16182;DHT22;8197;51.664;7.114;2023-11-22T19:50:30;10.00;64.90
16182;DHT22;8197;51.664;7.114;2023-11-22T19:55:34;10.20;64.30
16182;DHT22;8197;51.664;7.114;2023-11-22T20:00:37;10.00;64.50
16182;DHT22;8197;51.664;7.114;2023-11-22T20:05:40;9.90;65.50
16182;DHT22;8197;51.664;7.114;2023-11-22T20:10:45;10.00;65.20
16182;DHT22;8197;51.664;7.114;2023-11-22T20:15:48;10.00;65.10
16182;DHT22;8197;51.664;7.114;2023-11-22T20:20:52;10.10;65.30
16182;DHT22;8197;51.664;7.114;2023-11-22T20:25:56;10.00;65.30
16182;DHT22;8197;51.664;7.114;2023-11-22T20:30:59;9.80;65.80
16182;DHT22;8197;51.664;7.114;2023-11-22T20:36:02;9.70;66.50
16182;DHT22;8197;51.664;7.114;2023-11-22T20:41:07;9.70;65.90
16182;DHT22;8197;51.664;7.114;2023-11-22T20:46:10;9.80;65.60
16182;DHT22;8197;51.664;7.114;2023-11-22T20:51:13;9.90;66.00
16182;DHT22;8197;51.664;7.114;2023-11-22T20:56:18;10.10;65.10
16182;DHT22;8197;51.664;7.114;2023-11-22T21:01:21;10.20;65.00
16182;DHT22;8197;51.664;7.114;2023-11-22T21:06:23;10.30;64.40
16182;DHT22;8197;51.664;7.114;2023-11-22T21:11:28;10.40;64.50
16182;DHT22;8197;51.664;7.114;2023-11-22T21:16:31;10.80;63.00
16182;DHT22;8197;51.664;7.114;2023-11-22T21:21:34;10.90;62.00
16182;DHT22;8197;51.664;7.114;2023-11-22T21:26:38;10.60;63.10
16182;DHT22;8197;51.664;7.114;2023-11-22T21:31:41;10.60;63.80
16182;DHT22;8197;51.664;7.114;2023-11-22T21:36:44;10.70;62.90
16182;DHT22;8197;51.664;7.114;2023-11-22T21:41:48;10.70;63.70
16182;DHT22;8197;51.664;7.114;2023-11-22T21:46:51;10.80;63.80
16182;DHT22;8197;51.664;7.114;2023-11-22T21:51:54;10.80;63.50
16182;DHT22;8197;51.664;7.114;2023-11-22T21:56:59;10.80;62.70
16182;DHT22;8197;51.664;7.114;2023-11-22T22:02:02;10.80;63.40
16182;DHT22;8197;51.664;7.114;2023-11-22T22:07:05;10.60;64.80
16182;DHT22;8197;51.664;7.114;2023-11-22T22:12:09;10.60;64.70
16182;DHT22;8197;51.664;7.114;2023-11-22T22:17:12;10.60;65.00
16182;DHT22;8197;51.664;7.114;2023-11-22T22:22:15;10.50;65.50
16182;DHT22;8197;51.664;7.114;2023-11-22T22:27:19;10.60;65.50
16182;DHT22;8197;51.664;7.114;2023-11-22T22:32:22;10.80;64.90
16182;DHT22;8197;51.664;7.114;2023-11-22T22:37:25;10.90;64.70
16182;DHT22;8197;51.664;7.114;2023-11-22T22:42:29;10.90;65.00
16182;DHT22;8197;51.664;7.114;2023-11-22T22:47:32;10.90;65.40
16182;DHT22;8197;51.664;7.114;2023-11-22T22:52:35;10.90;65.40
16182;DHT22;8197;51.664;7.114;2023-11-22T22:57:40;11.00;65.50
16182;DHT22;8197;51.664;7.114;2023-11-22T23:02:44;10.90;65.70
16182;DHT22;8197;51.664;7.114;2023-11-22T23:07:49;11.00;65.80
16182;DHT22;8197;51.664;7.114;2023-11-22T23:12:53;11.00;66.30
16182;DHT22;8197;51.664;7.114;2023-11-22T23:17:57;11.10;66.00
16182;DHT22;8197;51.664;7.114;2023-11-22T23:23:00;11.20;66.00
16182;DHT22;8197;51.664;7.114;2023-11-22T23:28:05;11.10;66.50
16182;DHT22;8197;51.664;7.114;2023-11-22T23:33:08;11.10;67.10
16182;DHT22;8197;51.664;7.114;2023-11-22T23:38:11;10.90;67.20
16182;DHT22;8197;51.664;7.114;2023-11-22T23:43:16;10.90;67.60
16182;DHT22;8197;51.664;7.114;2023-11-22T23:48:19;10.90;67.90
16182;DHT22;8197;51.664;7.114;2023-11-22T23:53:22;10.90;67.60
16182;DHT22;8197;51.664;7.114;2023-11-22T23:58:26;10.80;68.00
